Terminal Aerodrome Forecast
Issued by NWS

Home | Current Version | Previous Version | Text Only | Print | Product List | Glossary On
Versions: 1 2 3 4 5 6 7 8 9 10 11 12 13 14 15 16 17 18 19 20
000
FTUS43 KDLH 182300 AAC
TAFHIB
TAF AMD
KHIB 182302Z 1823/1918 12012KT P6SM SCT200
     FM190200 12009KT P6SM BKN150
     FM190900 11009KT 6SM -RA SCT015 OVC050
     FM191100 13005KT 4SM -RA OVC015
     FM191600 23004KT 3SM -DZ BR OVC008=

USA.gov is the U.S. government's official web portal to all federal, state and local government web resources and services.